createdAt,value
2022-09-22T00:01:19.898Z,97096.53
2022-09-22T00:03:49.177Z,97054.47
2022-09-22T00:06:19.660Z,97094.47
2022-09-22T00:08:51.972Z,97099.97
2022-09-22T00:11:28.926Z,97092.38
2022-09-22T00:14:01.207Z,97087.53
2022-09-22T00:16:33.959Z,97057.25
2022-09-22T00:19:00.655Z,97104.31
2022-09-22T00:21:28.042Z,97100.91
2022-09-22T00:23:54.709Z,97104.22
2022-09-22T00:26:24.095Z,97107.38
2022-09-22T00:28:52.115Z,97043.88
2022-09-22T00:31:24.341Z,97032.38
2022-09-22T00:33:52.783Z,97101.44
2022-09-22T00:36:21.848Z,97094.38
2022-09-22T00:38:51.390Z,97071.41
2022-09-22T00:41:22.040Z,97077.91
2022-09-22T00:43:51.191Z,97080.78
2022-09-22T00:46:23.395Z,97090.22
2022-09-22T00:49:03.189Z,97084.47
2022-09-22T00:51:34.739Z,97050.69
2022-09-22T00:54:06.033Z,97042.81
2022-09-22T00:56:50.814Z,97059.31
2022-09-22T00:59:21.640Z,97068.34
2022-09-22T01:01:48.408Z,97084.84
2022-09-22T01:04:17.139Z,97039.44
2022-09-22T01:06:44.199Z,97074.91
2022-09-22T01:09:11.266Z,97076.47
2022-09-22T01:11:39.942Z,97089.53
2022-09-22T01:14:37.222Z,97075.69
2022-09-22T01:17:03.780Z,97075.19
2022-09-22T01:19:55.210Z,97075.69
2022-09-22T01:22:46.856Z,97068.84
2022-09-22T01:25:16.383Z,97073.75
2022-09-22T01:28:20.626Z,97058.59
2022-09-22T01:31:03.291Z,97070.94
2022-09-22T01:33:52.699Z,97071.97
2022-09-22T01:36:51.575Z,97077.47
2022-09-22T01:39:29.636Z,97020.28
2022-09-22T01:42:11.492Z,97064.22
2022-09-22T01:44:53.059Z,97028.16
2022-09-22T01:47:36.376Z,97067.53
2022-09-22T01:50:24.712Z,97040.16
2022-09-22T01:52:53.746Z,97030.75
2022-09-22T01:55:32.206Z,97047.28
2022-09-22T01:58:04.820Z,97017.34
2022-09-22T02:00:32.694Z,97070.75
2022-09-22T02:03:17.735Z,97055.03
2022-09-22T02:06:02.529Z,97061.19
2022-09-22T02:08:44.951Z,97021.03
2022-09-22T02:11:18.435Z,97007.53
2022-09-22T02:13:46.988Z,97028.47
2022-09-22T02:16:16.007Z,97057.75
2022-09-22T02:18:53.606Z,97020.09
2022-09-22T02:21:21.692Z,97000.72
2022-09-22T02:23:49.463Z,97011.72
2022-09-22T02:26:23.948Z,97048.59
2022-09-22T02:28:53.337Z,97008.56
2022-09-22T02:31:23.668Z,97044.41
2022-09-22T02:33:52.029Z,96996.47
2022-09-22T02:36:24.229Z,97044.63
2022-09-22T02:38:59.186Z,97022.31
2022-09-22T02:41:40.841Z,97036.25
2022-09-22T02:44:19.083Z,97040.16
2022-09-22T02:47:07.464Z,97004.63
2022-09-22T02:49:35.486Z,97015.78
2022-09-22T02:52:02.124Z,96969.47
2022-09-22T02:54:28.688Z,97038.06
2022-09-22T02:56:55.265Z,97036.75
2022-09-22T02:59:21.893Z,96998.69
2022-09-22T03:01:48.725Z,97039.91
2022-09-22T03:04:15.318Z,97038.50
2022-09-22T03:06:41.922Z,97023.88
2022-09-22T03:09:08.520Z,97046.41
2022-09-22T03:11:35.117Z,97006.69
2022-09-22T03:14:01.766Z,97006.69
2022-09-22T03:16:28.345Z,96980.50
2022-09-22T03:18:55.566Z,96988.25
2022-09-22T03:21:22.210Z,96995.78
2022-09-22T03:23:49.337Z,97010.97
2022-09-22T03:26:15.953Z,97010.75
2022-09-22T03:28:43.938Z,97009.97
2022-09-22T03:31:11.887Z,96949.06
2022-09-22T03:33:39.051Z,97029.84
2022-09-22T03:36:06.060Z,97007.47
2022-09-22T03:38:33.238Z,97030.50
2022-09-22T03:41:01.361Z,97001.56
2022-09-22T03:43:28.011Z,97023.72
2022-09-22T03:45:58.985Z,97001.97
2022-09-22T03:48:27.368Z,96987.84
2022-09-22T03:50:54.003Z,97023.16
2022-09-22T03:53:20.911Z,96927.81
2022-09-22T03:55:48.044Z,97024.56
2022-09-22T03:58:15.009Z,96989.00
2022-09-22T04:00:41.604Z,97020.09
2022-09-22T04:03:08.890Z,96998.22
2022-09-22T04:05:35.447Z,97009.09
2022-09-22T04:08:02.091Z,97026.81
2022-09-22T04:10:28.681Z,96995.13
2022-09-22T04:12:55.287Z,96974.94
2022-09-22T04:15:21.859Z,97016.16
2022-09-22T04:17:48.728Z,97022.22
2022-09-22T04:20:16.849Z,96988.19
2022-09-22T04:22:43.460Z,96988.19
2022-09-22T04:25:10.064Z,96995.25
2022-09-22T04:27:36.625Z,97018.34
2022-09-22T04:30:05.868Z,96967.34
2022-09-22T04:32:32.824Z,96985.25
2022-09-22T04:34:59.527Z,97002.63
2022-09-22T04:37:26.143Z,96978.56
2022-09-22T04:39:54.704Z,96990.72
2022-09-22T04:42:21.794Z,97014.91
2022-09-22T04:44:48.459Z,96990.66
2022-09-22T04:47:15.054Z,96972.97
2022-09-22T04:49:41.661Z,96999.75
2022-09-22T04:52:08.296Z,96983.22
2022-09-22T04:54:34.871Z,96962.69
2022-09-22T04:57:01.585Z,96996.41
2022-09-22T04:59:29.595Z,97005.28
2022-09-22T05:01:56.244Z,96956.41
2022-09-22T05:04:23.198Z,97016.88
2022-09-22T05:06:50.026Z,96980.94
2022-09-22T05:09:16.648Z,96974.69
2022-09-22T05:11:44.158Z,97021.09
2022-09-22T05:14:10.834Z,96992.53
2022-09-22T05:16:37.553Z,96986.63
2022-09-22T05:19:04.159Z,96956.44
2022-09-22T05:21:30.753Z,97012.88
2022-09-22T05:23:57.430Z,96987.56
2022-09-22T05:26:24.669Z,97010.44
2022-09-22T05:28:51.610Z,97011.22
2022-09-22T05:31:18.292Z,96996.22
2022-09-22T05:33:44.981Z,96952.56
2022-09-22T05:36:11.611Z,97024.03
2022-09-22T05:38:38.196Z,97009.38
2022-09-22T05:41:04.910Z,97024.69
2022-09-22T05:43:31.636Z,97000.13
2022-09-22T05:45:58.250Z,96996.72
2022-09-22T05:48:30.279Z,96979.94
2022-09-22T05:50:57.714Z,97013.72
2022-09-22T05:53:24.375Z,97003.97
2022-09-22T05:55:50.976Z,96982.03
2022-09-22T05:58:17.639Z,96957.03
2022-09-22T06:00:44.325Z,97037.03
2022-09-22T06:03:11.413Z,97035.56
2022-09-22T06:05:39.511Z,97028.88
2022-09-22T06:08:06.943Z,97025.13
2022-09-22T06:10:35.479Z,97038.94
2022-09-22T06:13:04.087Z,97039.50
2022-09-22T06:15:33.804Z,97029.31
2022-09-22T06:18:01.218Z,97038.13
2022-09-22T06:20:28.178Z,97032.31
2022-09-22T06:22:56.592Z,97042.38
2022-09-22T06:25:23.572Z,97015.44
2022-09-22T06:28:07.486Z,97034.56
2022-09-22T06:30:35.543Z,97035.34
2022-09-22T06:33:02.143Z,97043.03
2022-09-22T06:35:37.630Z,97026.34
2022-09-22T06:38:06.502Z,97007.84
2022-09-22T06:40:36.324Z,97000.25
2022-09-22T06:43:07.563Z,97033.22
2022-09-22T06:45:34.458Z,97046.25
2022-09-22T06:48:02.752Z,97015.91
2022-09-22T06:50:33.759Z,97022.25
2022-09-22T06:53:02.059Z,97044.47
2022-09-22T06:55:30.114Z,97045.59
2022-09-22T06:58:01.119Z,97039.84
2022-09-22T07:00:31.666Z,97011.34
2022-09-22T07:03:08.649Z,96999.06
2022-09-22T07:05:37.215Z,97039.88
2022-09-22T07:08:04.920Z,97043.50
2022-09-22T07:10:38.087Z,97016.59
2022-09-22T07:13:06.432Z,97036.22
2022-09-22T07:15:35.655Z,97020.81
2022-09-22T07:18:04.348Z,97043.28
2022-09-22T07:20:33.612Z,97013.72
2022-09-22T07:23:01.527Z,97012.19
2022-09-22T07:25:29.253Z,97053.19
2022-09-22T07:27:57.802Z,97031.97
2022-09-22T07:30:26.202Z,97043.91
2022-09-22T07:32:52.897Z,97042.22
2022-09-22T07:35:19.698Z,97041.69
2022-09-22T07:37:46.678Z,97025.66
2022-09-22T07:40:14.601Z,97039.91
2022-09-22T07:42:41.356Z,97001.72
2022-09-22T07:45:12.741Z,97010.41
2022-09-22T07:47:58.140Z,97065.13
2022-09-22T07:50:24.764Z,97056.38
2022-09-22T07:52:54.891Z,97057.25
2022-09-22T07:55:24.154Z,97061.44
2022-09-22T07:58:00.811Z,97052.16
2022-09-22T08:00:32.961Z,97057.63
2022-09-22T08:03:01.363Z,97060.00
2022-09-22T08:05:28.708Z,97020.81
2022-09-22T08:07:58.279Z,97053.53
2022-09-22T08:10:26.157Z,97051.16
2022-09-22T08:12:54.655Z,97002.44
2022-09-22T08:15:26.679Z,97059.97
2022-09-22T08:17:58.159Z,97046.72
2022-09-22T08:20:29.095Z,97012.19
2022-09-22T08:23:03.048Z,97056.63
2022-09-22T08:25:30.437Z,97051.28
2022-09-22T08:27:57.143Z,97060.75
2022-09-22T08:30:23.795Z,97009.41
2022-09-22T08:32:50.348Z,97051.72
2022-09-22T08:35:17.500Z,97052.78
2022-09-22T08:37:45.616Z,97026.41
2022-09-22T08:40:25.736Z,97049.63
2022-09-22T08:42:54.306Z,97051.34
2022-09-22T08:45:30.064Z,97060.38
2022-09-22T08:48:52.319Z,97047.00
2022-09-22T08:51:43.074Z,97052.47
2022-09-22T08:54:09.823Z,97039.88
2022-09-22T08:57:00.291Z,97048.22
2022-09-22T08:59:38.762Z,97010.72
2022-09-22T09:02:36.474Z,97050.16
2022-09-22T09:05:21.010Z,97042.88
2022-09-22T09:08:00.227Z,97052.69
2022-09-22T09:10:42.167Z,97046.72
2022-09-22T09:13:11.683Z,97052.00
2022-09-22T09:16:04.202Z,97046.56
2022-09-22T09:18:34.016Z,97030.06
2022-09-22T09:21:04.342Z,97012.84
2022-09-22T09:26:41.415Z,97003.00
2022-09-22T09:29:18.109Z,97030.41
2022-09-22T09:31:53.267Z,96994.91
2022-09-22T09:34:23.756Z,96978.75
2022-09-22T09:36:55.619Z,97036.66
2022-09-22T09:39:32.609Z,97044.59
2022-09-22T09:42:02.549Z,97021.41
2022-09-22T09:44:40.268Z,96989.03
2022-09-22T09:47:34.729Z,97030.09
2022-09-22T09:50:01.388Z,96967.09
2022-09-22T09:52:28.483Z,96948.38
2022-09-22T09:54:55.349Z,96999.34
2022-09-22T09:57:27.579Z,97018.97
2022-09-22T10:00:32.987Z,97021.22
2022-09-22T10:03:26.980Z,97029.16
2022-09-22T10:06:04.470Z,97004.44
2022-09-22T10:08:36.630Z,96978.03
2022-09-22T10:11:04.346Z,97018.41
2022-09-22T10:13:34.212Z,96989.69
2022-09-22T10:16:24.159Z,96984.31
2022-09-22T10:19:12.799Z,97024.00
2022-09-22T10:21:39.411Z,96976.22
2022-09-22T10:24:27.857Z,97016.47
2022-09-22T10:26:55.993Z,96970.56
2022-09-22T10:29:22.796Z,96967.16
2022-09-22T10:32:08.233Z,97013.03
2022-09-22T10:34:51.441Z,97007.91
2022-09-22T10:37:25.415Z,96969.47
2022-09-22T10:39:54.221Z,97010.94
2022-09-22T10:42:43.452Z,97013.16
2022-09-22T10:45:13.876Z,97014.84
2022-09-22T10:48:03.593Z,97016.94
2022-09-22T10:51:14.691Z,97012.59
2022-09-22T10:54:22.762Z,97020.72
2022-09-22T10:56:53.332Z,97006.75
2022-09-22T10:59:51.373Z,97017.16
2022-09-22T11:02:18.323Z,97016.84
2022-09-22T11:04:52.137Z,96994.03
2022-09-22T11:07:54.371Z,96977.81
2022-09-22T11:10:56.637Z,96966.53
2022-09-22T11:13:40.222Z,97005.25
2022-09-22T11:16:37.767Z,97002.53
2022-09-22T11:19:26.927Z,97005.75
2022-09-22T11:22:12.743Z,97001.09
2022-09-22T11:24:48.668Z,96994.97
2022-09-22T11:27:28.906Z,96984.38
2022-09-22T11:30:01.591Z,96992.97
2022-09-22T11:32:44.243Z,96973.19
2022-09-22T11:35:17.031Z,96988.91
2022-09-22T11:38:11.418Z,96988.28
2022-09-22T11:41:19.679Z,96994.56
2022-09-22T11:44:05.800Z,96988.03
2022-09-22T11:46:46.632Z,96976.91
2022-09-22T11:49:31.964Z,96981.69
2022-09-22T11:52:17.605Z,96968.97
2022-09-22T11:55:23.462Z,96970.22
2022-09-22T11:57:56.937Z,96964.22
2022-09-22T12:00:23.533Z,96965.34
2022-09-22T12:03:54.979Z,96972.63
2022-09-22T12:06:26.260Z,96945.84
2022-09-22T12:09:03.093Z,96934.00
2022-09-22T12:11:35.771Z,96933.53
2022-09-22T12:14:04.438Z,96925.63
2022-09-22T12:16:31.260Z,96962.75
2022-09-22T12:19:19.224Z,96971.56
2022-09-22T12:21:52.487Z,96966.44
2022-09-22T12:24:19.181Z,96938.38
2022-09-22T12:26:50.023Z,96954.25
2022-09-22T12:29:16.703Z,96954.97
2022-09-22T12:31:48.231Z,96916.59
2022-09-22T12:34:32.825Z,96961.53
2022-09-22T12:37:32.020Z,96957.22
2022-09-22T12:40:13.952Z,96956.59
2022-09-22T12:42:45.678Z,96911.28
2022-09-22T12:45:42.390Z,96963.72
2022-09-22T12:48:16.235Z,96891.81
2022-09-22T12:50:44.755Z,96951.22
2022-09-22T12:53:14.984Z,96925.75
2022-09-22T12:55:41.876Z,96929.59
2022-09-22T12:58:20.750Z,96946.56
2022-09-22T13:00:49.681Z,96934.75
2022-09-22T13:03:25.194Z,96934.78
2022-09-22T13:05:54.079Z,96931.22
2022-09-22T13:08:33.023Z,96923.72
2022-09-22T13:11:07.713Z,96903.00
2022-09-22T13:13:47.231Z,96906.31
2022-09-22T13:16:13.880Z,96921.47
2022-09-22T13:18:58.692Z,96920.91
2022-09-22T13:21:33.355Z,96875.44
2022-09-22T13:24:02.194Z,96872.66
2022-09-22T13:26:30.589Z,96923.78
2022-09-22T13:29:20.803Z,96912.78
2022-09-22T13:31:52.930Z,96913.84
2022-09-22T13:34:36.014Z,96913.41
2022-09-22T13:37:09.780Z,96889.25
2022-09-22T13:39:49.423Z,96892.50
2022-09-22T13:42:32.367Z,96907.63
2022-09-22T13:45:00.877Z,96842.94
2022-09-22T13:47:28.167Z,96866.31
2022-09-22T13:50:01.643Z,96910.50
2022-09-22T13:52:31.341Z,96909.78
2022-09-22T13:55:07.753Z,96887.19
2022-09-22T13:57:37.775Z,96903.88
2022-09-22T14:00:06.937Z,96899.25
2022-09-22T14:02:34.715Z,96881.72
2022-09-22T14:05:06.219Z,96848.09
2022-09-22T14:07:41.266Z,96850.63
2022-09-22T14:10:25.802Z,96869.34
2022-09-22T14:12:52.568Z,96861.72
2022-09-22T14:15:37.736Z,96885.16
2022-09-22T14:18:17.063Z,96880.16
2022-09-22T14:20:45.272Z,96837.34
2022-09-22T14:23:20.807Z,96835.03
2022-09-22T14:25:47.621Z,96798.78
2022-09-22T14:28:22.194Z,96874.22
2022-09-22T14:30:50.239Z,96813.69
2022-09-22T14:33:25.452Z,96843.41
2022-09-22T14:36:00.702Z,96833.78
2022-09-22T14:38:32.535Z,96836.53
2022-09-22T14:41:00.003Z,96808.94
2022-09-22T14:43:37.069Z,96834.84
2022-09-22T14:46:33.679Z,96800.97
2022-09-22T14:49:40.601Z,96856.94
2022-09-22T14:52:26.035Z,96854.94
2022-09-22T14:54:56.831Z,96831.34
2022-09-22T14:57:31.301Z,96809.06
2022-09-22T15:00:18.437Z,96794.09
2022-09-22T15:02:53.950Z,96820.34
2022-09-22T15:05:32.934Z,96820.31
2022-09-22T15:08:03.056Z,96840.00
2022-09-22T15:10:35.200Z,96846.53
2022-09-22T15:13:41.010Z,96860.69
2022-09-22T15:16:45.515Z,96860.88
2022-09-22T15:19:13.342Z,96868.84
2022-09-22T15:21:46.982Z,96871.81
2022-09-22T15:24:16.288Z,96877.66
2022-09-22T15:26:44.249Z,96856.66
2022-09-22T15:29:17.475Z,96835.34
2022-09-22T15:31:44.143Z,96826.22
2022-09-22T15:34:14.599Z,96824.78
2022-09-22T15:36:46.535Z,96867.66
2022-09-22T15:39:33.335Z,96861.03
2022-09-22T15:42:00.206Z,96814.88
2022-09-22T15:44:27.374Z,96812.16
2022-09-22T15:46:58.024Z,96850.31
2022-09-22T15:49:29.084Z,96846.13
2022-09-22T15:51:59.791Z,96853.06
2022-09-22T15:54:26.945Z,96809.25
2022-09-22T15:56:55.728Z,96840.84
2022-09-22T15:59:32.991Z,96848.75
2022-09-22T16:02:02.760Z,96786.34
2022-09-22T16:04:33.847Z,96812.00
2022-09-22T16:07:04.698Z,96845.97
2022-09-22T16:09:31.376Z,96840.41
2022-09-22T16:12:01.054Z,96842.22
2022-09-22T16:14:27.828Z,96768.28
2022-09-22T16:16:56.984Z,96816.44
2022-09-22T16:19:23.878Z,96779.59
2022-09-22T16:21:54.370Z,96752.09
2022-09-22T16:24:22.433Z,96779.09
2022-09-22T16:26:50.184Z,96813.25
2022-09-22T16:29:16.847Z,96810.56
2022-09-22T16:31:48.477Z,96805.56
2022-09-22T16:34:20.149Z,96831.69
2022-09-22T16:36:46.790Z,96808.28
2022-09-22T16:39:13.582Z,96792.00
2022-09-22T16:41:48.806Z,96818.91
2022-09-22T16:44:49.464Z,96753.47
2022-09-22T16:47:24.095Z,96795.84
2022-09-22T16:49:56.977Z,96768.78
2022-09-22T16:52:27.711Z,96761.88
2022-09-22T16:54:54.526Z,96774.28
2022-09-22T16:57:55.893Z,96674.09
2022-09-22T17:00:22.574Z,96802.88
2022-09-22T17:02:54.468Z,96742.69
2022-09-22T17:05:24.508Z,96686.78
2022-09-22T17:07:52.466Z,96791.72
2022-09-22T17:10:20.026Z,96761.94
2022-09-22T17:12:46.648Z,96764.13
2022-09-22T17:15:13.985Z,96791.06
2022-09-22T17:17:41.199Z,96800.59
2022-09-22T17:20:10.935Z,96783.25
2022-09-22T17:22:37.828Z,96772.22
2022-09-22T17:25:05.362Z,96781.22
2022-09-22T17:27:32.087Z,96803.63
2022-09-22T17:30:01.317Z,96798.94
2022-09-22T17:32:29.997Z,96805.31
2022-09-22T17:34:57.835Z,96791.59
2022-09-22T17:37:24.564Z,96802.06
2022-09-22T17:39:51.205Z,96794.09
2022-09-22T17:42:18.197Z,96807.00
2022-09-22T17:44:44.810Z,96819.69
2022-09-22T17:47:29.919Z,96805.25
2022-09-22T17:50:15.246Z,96780.66
2022-09-22T17:53:00.072Z,96774.34
2022-09-22T17:55:27.025Z,96811.75
2022-09-22T17:57:56.233Z,96801.34
2022-09-22T18:00:24.207Z,96801.66
2022-09-22T18:02:55.609Z,96815.88
2022-09-22T18:05:29.846Z,96803.72
2022-09-22T18:07:59.386Z,96777.13
2022-09-22T18:10:34.160Z,96773.31
2022-09-22T18:13:02.041Z,96812.06
2022-09-22T18:15:29.265Z,96783.41
2022-09-22T18:17:58.134Z,96823.38
2022-09-22T18:20:26.213Z,96816.03
2022-09-22T18:22:53.557Z,96789.97
2022-09-22T18:25:23.152Z,96781.59
2022-09-22T18:27:49.947Z,96823.19
2022-09-22T18:30:18.420Z,96823.91
2022-09-22T18:32:45.527Z,96803.47
2022-09-22T18:35:12.917Z,96834.16
2022-09-22T18:37:39.976Z,96774.72
2022-09-22T18:40:07.449Z,96768.69
2022-09-22T18:42:36.590Z,96817.63
2022-09-22T18:45:04.087Z,96803.50
2022-09-22T18:47:30.840Z,96782.84
2022-09-22T18:49:58.684Z,96825.50
2022-09-22T18:52:25.622Z,96824.00
2022-09-22T18:54:54.265Z,96828.13
2022-09-22T18:57:22.545Z,96826.22
2022-09-22T18:59:51.011Z,96826.72
2022-09-22T19:02:21.416Z,96776.66
2022-09-22T19:04:49.125Z,96811.53
2022-09-22T19:07:41.639Z,96779.97
2022-09-22T19:10:14.809Z,96825.84
2022-09-22T19:12:42.685Z,96827.22
2022-09-22T19:15:16.473Z,96821.56
2022-09-22T19:17:45.029Z,96830.63
2022-09-22T19:20:35.663Z,96831.09
2022-09-22T19:23:02.863Z,96826.13
2022-09-22T19:25:29.831Z,96819.13
2022-09-22T19:27:56.456Z,96813.34
2022-09-22T19:30:25.785Z,96820.06
2022-09-22T19:32:55.192Z,96786.28
2022-09-22T19:35:22.089Z,96775.47
2022-09-22T19:37:51.647Z,96787.25
2022-09-22T19:40:20.190Z,96799.03
2022-09-22T19:42:47.765Z,96818.34
2022-09-22T19:45:14.660Z,96736.78
2022-09-22T19:47:41.670Z,96818.88
2022-09-22T19:50:09.040Z,96789.22
2022-09-22T19:52:37.773Z,96807.03
2022-09-22T19:55:11.494Z,96792.06
2022-09-22T19:57:41.217Z,96787.94
2022-09-22T20:00:17.414Z,96818.84
2022-09-22T20:02:45.021Z,96781.63
2022-09-22T20:05:22.088Z,96802.78
2022-09-22T20:07:49.014Z,96729.63
2022-09-22T20:10:17.271Z,96811.44
2022-09-22T20:12:44.095Z,96779.56
2022-09-22T20:15:15.133Z,96815.66
2022-09-22T20:17:46.231Z,96744.72
2022-09-22T20:20:17.975Z,96787.41
2022-09-22T20:22:46.417Z,96817.66
2022-09-22T20:25:23.441Z,96812.69
2022-09-22T20:27:50.427Z,96802.34
2022-09-22T20:30:17.957Z,96789.31
2022-09-22T20:32:45.422Z,96785.16
2022-09-22T20:35:14.287Z,96814.00
2022-09-22T20:37:42.341Z,96791.75
2022-09-22T20:40:21.317Z,96788.97
2022-09-22T20:42:51.134Z,96811.72
2022-09-22T20:45:20.965Z,96786.81
2022-09-22T20:47:48.113Z,96786.25
2022-09-22T20:50:15.175Z,96809.81
2022-09-22T20:52:42.937Z,96809.25
2022-09-22T20:55:10.854Z,96808.69
2022-09-22T20:57:39.019Z,96810.97
2022-09-22T21:00:06.904Z,96814.59
2022-09-22T21:02:33.736Z,96808.00
2022-09-22T21:05:00.475Z,96813.03
2022-09-22T21:07:27.084Z,96773.28
2022-09-22T21:10:12.413Z,96812.09
2022-09-22T21:12:39.790Z,96779.84
2022-09-22T21:15:06.712Z,96781.09
2022-09-22T21:17:35.156Z,96787.97
2022-09-22T21:20:02.141Z,96784.53
2022-09-22T21:22:28.876Z,96785.63
2022-09-22T21:24:56.464Z,96816.09
2022-09-22T21:27:24.794Z,96786.75
2022-09-22T21:29:51.438Z,96798.25
2022-09-22T21:32:19.921Z,96784.66
2022-09-22T21:34:46.600Z,96697.44
2022-09-22T21:37:14.464Z,96752.78
2022-09-22T21:39:41.258Z,96790.56
2022-09-22T21:42:07.877Z,96759.06
2022-09-22T21:44:34.565Z,96795.97
2022-09-22T21:47:01.222Z,96802.19
2022-09-22T21:49:28.307Z,96789.69
2022-09-22T21:51:54.898Z,96786.63
2022-09-22T21:54:21.570Z,96783.94
2022-09-22T21:56:50.459Z,96761.72
2022-09-22T21:59:17.407Z,96759.97
2022-09-22T22:01:45.157Z,96784.97
2022-09-22T22:04:15.210Z,96801.91
2022-09-22T22:06:43.525Z,96805.63
2022-09-22T22:09:18.266Z,96805.28
2022-09-22T22:11:50.455Z,96798.66
2022-09-22T22:14:22.562Z,96787.13
2022-09-22T22:16:54.268Z,96804.19
2022-09-22T22:19:22.455Z,96788.25
2022-09-22T22:21:50.955Z,96795.88
2022-09-22T22:24:25.133Z,96790.53
2022-09-22T22:26:57.547Z,96797.09
2022-09-22T22:29:26.385Z,96791.38
2022-09-22T22:31:53.527Z,96797.66
2022-09-22T22:34:22.856Z,96710.97
2022-09-22T22:36:49.644Z,96759.06
2022-09-22T22:39:16.546Z,96792.38
2022-09-22T22:41:43.450Z,96755.34
2022-09-22T22:44:12.274Z,96768.94
2022-09-22T22:46:38.922Z,96787.94
2022-09-22T22:49:07.643Z,96772.06
2022-09-22T22:51:37.311Z,96761.97
2022-09-22T22:54:04.979Z,96769.81
2022-09-22T22:56:32.270Z,96784.94
2022-09-22T22:58:59.286Z,96769.06
2022-09-22T23:01:29.078Z,96781.34
2022-09-22T23:04:01.123Z,96755.75
2022-09-22T23:06:32.216Z,96785.53
2022-09-22T23:08:58.887Z,96729.75
2022-09-22T23:11:30.732Z,96787.59
2022-09-22T23:14:03.099Z,96771.88
2022-09-22T23:16:32.927Z,96774.44
2022-09-22T23:19:01.817Z,96775.81
2022-09-22T23:21:30.380Z,96740.59
2022-09-22T23:23:57.722Z,96734.03
2022-09-22T23:26:24.298Z,96716.38
2022-09-22T23:28:52.150Z,96764.63
2022-09-22T23:31:21.519Z,96718.97
2022-09-22T23:33:50.325Z,96763.31
2022-09-22T23:36:18.349Z,96764.81
2022-09-22T23:38:45.144Z,96758.97
2022-09-22T23:41:12.044Z,96702.44
2022-09-22T23:43:38.945Z,96750.38
2022-09-22T23:46:07.553Z,96760.81
2022-09-22T23:48:35.329Z,96762.38
2022-09-22T23:51:03.154Z,96762.09
2022-09-22T23:53:32.598Z,96768.41
2022-09-22T23:55:59.622Z,96714.72
2022-09-22T23:58:26.309Z,96716.56
